sensor_id;sensor_type;location;lat;lon;timestamp;pressure;altitude;pressure_sealevel;temperature
34807;BMP180;18310;55.586;12.286;2023-04-01T00:01:37;100087.00;;;11.40
34807;BMP180;18310;55.586;12.286;2023-04-01T00:04:42;100103.00;;;11.40
34807;BMP180;18310;55.586;12.286;2023-04-01T00:07:46;100093.00;;;11.30
34807;BMP180;18310;55.586;12.286;2023-04-01T00:10:49;100107.00;;;11.30
34807;BMP180;18310;55.586;12.286;2023-04-01T00:13:53;100103.00;;;11.30
34807;BMP180;18310;55.586;12.286;2023-04-01T00:16:58;100110.00;;;11.30
34807;BMP180;18310;55.586;12.286;2023-04-01T00:20:04;100109.00;;;11.30
34807;BMP180;18310;55.586;12.286;2023-04-01T00:23:07;100111.00;;;11.20
34807;BMP180;18310;55.586;12.286;2023-04-01T00:26:11;100117.00;;;11.20
34807;BMP180;18310;55.586;12.286;2023-04-01T00:29:16;100118.00;;;11.20
34807;BMP180;18310;55.586;12.286;2023-04-01T00:32:20;100121.00;;;11.20
34807;BMP180;18310;55.586;12.286;2023-04-01T00:35:25;100113.00;;;11.20
34807;BMP180;18310;55.586;12.286;2023-04-01T00:38:29;100132.00;;;11.20
34807;BMP180;18310;55.586;12.286;2023-04-01T00:41:33;100138.00;;;11.10
34807;BMP180;18310;55.586;12.286;2023-04-01T00:44:38;100132.00;;;11.10
34807;BMP180;18310;55.586;12.286;2023-04-01T00:47:41;100113.00;;;11.00
34807;BMP180;18310;55.586;12.286;2023-04-01T00:50:50;100125.00;;;11.00
34807;BMP180;18310;55.586;12.286;2023-04-01T00:53:56;100129.00;;;10.90
34807;BMP180;18310;55.586;12.286;2023-04-01T00:57:04;100137.00;;;10.90
34807;BMP180;18310;55.586;12.286;2023-04-01T01:00:11;100142.00;;;10.90
34807;BMP180;18310;55.586;12.286;2023-04-01T01:03:17;100153.00;;;10.90
34807;BMP180;18310;55.586;12.286;2023-04-01T01:06:31;100139.00;;;10.80
34807;BMP180;18310;55.586;12.286;2023-04-01T01:09:47;100148.00;;;10.90
34807;BMP180;18310;55.586;12.286;2023-04-01T01:13:00;100147.00;;;10.90
34807;BMP180;18310;55.586;12.286;2023-04-01T01:16:12;100148.00;;;10.90
34807;BMP180;18310;55.586;12.286;2023-04-01T01:19:35;100158.00;;;10.90
34807;BMP180;18310;55.586;12.286;2023-04-01T01:22:56;100175.00;;;10.90
34807;BMP180;18310;55.586;12.286;2023-04-01T01:26:25;100161.00;;;10.90
34807;BMP180;18310;55.586;12.286;2023-04-01T01:33:47;100163.00;;;10.80
34807;BMP180;18310;55.586;12.286;2023-04-01T01:36:56;100162.00;;;10.80
34807;BMP180;18310;55.586;12.286;2023-04-01T01:40:03;100167.00;;;10.80
34807;BMP180;18310;55.586;12.286;2023-04-01T01:43:10;100162.00;;;10.80
34807;BMP180;18310;55.586;12.286;2023-04-01T01:46:18;100178.00;;;10.80
34807;BMP180;18310;55.586;12.286;2023-04-01T01:49:23;100173.00;;;10.80
34807;BMP180;18310;55.586;12.286;2023-04-01T01:52:29;100169.00;;;10.80
34807;BMP180;18310;55.586;12.286;2023-04-01T01:55:34;100168.00;;;10.80
34807;BMP180;18310;55.586;12.286;2023-04-01T01:58:40;100177.00;;;10.80
34807;BMP180;18310;55.586;12.286;2023-04-01T02:01:48;100175.00;;;10.80
34807;BMP180;18310;55.586;12.286;2023-04-01T02:04:53;100180.00;;;10.80
34807;BMP180;18310;55.586;12.286;2023-04-01T02:08:02;100178.00;;;10.80
34807;BMP180;18310;55.586;12.286;2023-04-01T02:11:10;100173.00;;;10.80
34807;BMP180;18310;55.586;12.286;2023-04-01T02:14:17;100185.00;;;10.80
34807;BMP180;18310;55.586;12.286;2023-04-01T02:17:24;100183.00;;;10.80
34807;BMP180;18310;55.586;12.286;2023-04-01T02:20:30;100178.00;;;10.80
34807;BMP180;18310;55.586;12.286;2023-04-01T02:23:37;100195.00;;;10.80
34807;BMP180;18310;55.586;12.286;2023-04-01T02:26:41;100187.00;;;10.80
34807;BMP180;18310;55.586;12.286;2023-04-01T02:29:46;100198.00;;;10.80
34807;BMP180;18310;55.586;12.286;2023-04-01T02:32:50;100194.00;;;10.80
34807;BMP180;18310;55.586;12.286;2023-04-01T02:35:53;100193.00;;;10.90
34807;BMP180;18310;55.586;12.286;2023-04-01T02:38:59;100192.00;;;10.80
34807;BMP180;18310;55.586;12.286;2023-04-01T02:42:06;100196.00;;;10.80
34807;BMP180;18310;55.586;12.286;2023-04-01T02:45:11;100191.00;;;10.80
34807;BMP180;18310;55.586;12.286;2023-04-01T02:48:15;100207.00;;;10.70
34807;BMP180;18310;55.586;12.286;2023-04-01T02:51:19;100209.00;;;10.80
34807;BMP180;18310;55.586;12.286;2023-04-01T02:54:24;100220.00;;;10.80
34807;BMP180;18310;55.586;12.286;2023-04-01T02:57:28;100238.00;;;10.80
34807;BMP180;18310;55.586;12.286;2023-04-01T03:00:32;100220.00;;;10.80
34807;BMP180;18310;55.586;12.286;2023-04-01T03:03:36;100223.00;;;10.80
34807;BMP180;18310;55.586;12.286;2023-04-01T03:06:39;100228.00;;;10.80
34807;BMP180;18310;55.586;12.286;2023-04-01T03:09:45;100226.00;;;10.80
34807;BMP180;18310;55.586;12.286;2023-04-01T03:12:48;100242.00;;;10.80
34807;BMP180;18310;55.586;12.286;2023-04-01T03:15:53;100253.00;;;10.70
34807;BMP180;18310;55.586;12.286;2023-04-01T03:18:56;100242.00;;;10.80
34807;BMP180;18310;55.586;12.286;2023-04-01T03:22:01;100245.00;;;10.70
34807;BMP180;18310;55.586;12.286;2023-04-01T03:25:08;100233.00;;;10.70
34807;BMP180;18310;55.586;12.286;2023-04-01T03:28:12;100236.00;;;10.70
34807;BMP180;18310;55.586;12.286;2023-04-01T03:31:16;100248.00;;;10.70
34807;BMP180;18310;55.586;12.286;2023-04-01T03:34:23;100240.00;;;10.70
34807;BMP180;18310;55.586;12.286;2023-04-01T03:37:26;100247.00;;;10.70
34807;BMP180;18310;55.586;12.286;2023-04-01T03:40:31;100256.00;;;10.70
34807;BMP180;18310;55.586;12.286;2023-04-01T03:43:39;100256.00;;;10.70
34807;BMP180;18310;55.586;12.286;2023-04-01T03:46:43;100266.00;;;10.70
34807;BMP180;18310;55.586;12.286;2023-04-01T03:49:46;100274.00;;;10.60
34807;BMP180;18310;55.586;12.286;2023-04-01T03:52:51;100271.00;;;10.60
34807;BMP180;18310;55.586;12.286;2023-04-01T03:55:56;100278.00;;;10.60
34807;BMP180;18310;55.586;12.286;2023-04-01T03:59:03;100288.00;;;10.60
34807;BMP180;18310;55.586;12.286;2023-04-01T04:02:08;100290.00;;;10.60
34807;BMP180;18310;55.586;12.286;2023-04-01T04:05:11;100287.00;;;10.60
34807;BMP180;18310;55.586;12.286;2023-04-01T04:08:16;100295.00;;;10.50
34807;BMP180;18310;55.586;12.286;2023-04-01T04:11:22;100296.00;;;10.50
34807;BMP180;18310;55.586;12.286;2023-04-01T04:14:26;100311.00;;;10.50
34807;BMP180;18310;55.586;12.286;2023-04-01T04:17:29;100320.00;;;10.50
34807;BMP180;18310;55.586;12.286;2023-04-01T04:20:33;100314.00;;;10.50
34807;BMP180;18310;55.586;12.286;2023-04-01T04:23:37;100313.00;;;10.50
34807;BMP180;18310;55.586;12.286;2023-04-01T04:26:42;100314.00;;;10.50
34807;BMP180;18310;55.586;12.286;2023-04-01T04:29:46;100315.00;;;10.50
34807;BMP180;18310;55.586;12.286;2023-04-01T04:32:49;100333.00;;;10.50
34807;BMP180;18310;55.586;12.286;2023-04-01T04:35:56;100333.00;;;10.50
34807;BMP180;18310;55.586;12.286;2023-04-01T04:38:59;100326.00;;;10.40
34807;BMP180;18310;55.586;12.286;2023-04-01T04:42:06;100331.00;;;10.40
34807;BMP180;18310;55.586;12.286;2023-04-01T04:45:10;100333.00;;;10.40
34807;BMP180;18310;55.586;12.286;2023-04-01T04:48:16;100341.00;;;10.40
34807;BMP180;18310;55.586;12.286;2023-04-01T04:51:22;100341.00;;;10.40
34807;BMP180;18310;55.586;12.286;2023-04-01T04:54:26;100343.00;;;10.50
34807;BMP180;18310;55.586;12.286;2023-04-01T04:57:31;100346.00;;;10.50
34807;BMP180;18310;55.586;12.286;2023-04-01T05:00:35;100357.00;;;10.50
34807;BMP180;18310;55.586;12.286;2023-04-01T05:03:39;100361.00;;;10.60
34807;BMP180;18310;55.586;12.286;2023-04-01T05:06:43;100355.00;;;10.60
34807;BMP180;18310;55.586;12.286;2023-04-01T05:09:47;100365.00;;;10.60
34807;BMP180;18310;55.586;12.286;2023-04-01T05:12:52;100374.00;;;10.50
34807;BMP180;18310;55.586;12.286;2023-04-01T05:15:56;100372.00;;;10.50
34807;BMP180;18310;55.586;12.286;2023-04-01T05:19:00;100382.00;;;10.50
34807;BMP180;18310;55.586;12.286;2023-04-01T05:22:04;100388.00;;;10.40
34807;BMP180;18310;55.586;12.286;2023-04-01T05:25:08;100394.00;;;10.40
34807;BMP180;18310;55.586;12.286;2023-04-01T05:28:13;100398.00;;;10.40
34807;BMP180;18310;55.586;12.286;2023-04-01T05:31:16;100397.00;;;10.40
34807;BMP180;18310;55.586;12.286;2023-04-01T05:34:20;100399.00;;;10.50
34807;BMP180;18310;55.586;12.286;2023-04-01T05:37:23;100413.00;;;10.50
34807;BMP180;18310;55.586;12.286;2023-04-01T05:40:28;100407.00;;;10.50
34807;BMP180;18310;55.586;12.286;2023-04-01T05:43:35;100412.00;;;10.40
34807;BMP180;18310;55.586;12.286;2023-04-01T05:46:38;100416.00;;;10.40
34807;BMP180;18310;55.586;12.286;2023-04-01T05:49:42;100416.00;;;10.40
34807;BMP180;18310;55.586;12.286;2023-04-01T05:52:46;100414.00;;;10.40
34807;BMP180;18310;55.586;12.286;2023-04-01T05:55:49;100421.00;;;10.40
34807;BMP180;18310;55.586;12.286;2023-04-01T05:58:55;100423.00;;;10.40
34807;BMP180;18310;55.586;12.286;2023-04-01T06:01:58;100422.00;;;10.40
34807;BMP180;18310;55.586;12.286;2023-04-01T06:05:12;100432.00;;;10.40
34807;BMP180;18310;55.586;12.286;2023-04-01T06:08:17;100434.00;;;10.50
34807;BMP180;18310;55.586;12.286;2023-04-01T06:11:28;100447.00;;;10.50
34807;BMP180;18310;55.586;12.286;2023-04-01T06:14:41;100440.00;;;10.50
34807;BMP180;18310;55.586;12.286;2023-04-01T06:17:59;100447.00;;;10.40
34807;BMP180;18310;55.586;12.286;2023-04-01T06:21:14;100456.00;;;10.40
34807;BMP180;18310;55.586;12.286;2023-04-01T06:28:39;100461.00;;;10.50
34807;BMP180;18310;55.586;12.286;2023-04-01T06:32:01;100474.00;;;10.50
34807;BMP180;18310;55.586;12.286;2023-04-01T06:35:22;100463.00;;;10.50
34807;BMP180;18310;55.586;12.286;2023-04-01T06:38:49;100471.00;;;10.50
34807;BMP180;18310;55.586;12.286;2023-04-01T06:42:19;100467.00;;;10.60
34807;BMP180;18310;55.586;12.286;2023-04-01T06:45:35;100482.00;;;10.60
34807;BMP180;18310;55.586;12.286;2023-04-01T06:49:00;100469.00;;;10.60
34807;BMP180;18310;55.586;12.286;2023-04-01T06:52:15;100490.00;;;10.80
34807;BMP180;18310;55.586;12.286;2023-04-01T06:55:29;100480.00;;;11.00
34807;BMP180;18310;55.586;12.286;2023-04-01T06:58:35;100496.00;;;11.10
34807;BMP180;18310;55.586;12.286;2023-04-01T07:01:42;100483.00;;;11.00
34807;BMP180;18310;55.586;12.286;2023-04-01T07:04:52;100500.00;;;11.00
34807;BMP180;18310;55.586;12.286;2023-04-01T07:07:59;100496.00;;;11.00
34807;BMP180;18310;55.586;12.286;2023-04-01T07:11:06;100509.00;;;11.00
34807;BMP180;18310;55.586;12.286;2023-04-01T07:14:14;100514.00;;;11.10
34807;BMP180;18310;55.586;12.286;2023-04-01T07:17:21;100505.00;;;11.20
34807;BMP180;18310;55.586;12.286;2023-04-01T07:20:30;100519.00;;;11.20
34807;BMP180;18310;55.586;12.286;2023-04-01T07:23:39;100511.00;;;11.30
34807;BMP180;18310;55.586;12.286;2023-04-01T07:26:45;100515.00;;;11.30
34807;BMP180;18310;55.586;12.286;2023-04-01T07:29:50;100521.00;;;11.40
34807;BMP180;18310;55.586;12.286;2023-04-01T07:32:58;100531.00;;;11.50
34807;BMP180;18310;55.586;12.286;2023-04-01T07:36:13;100534.00;;;11.50
34807;BMP180;18310;55.586;12.286;2023-04-01T07:39:30;100540.00;;;11.60
34807;BMP180;18310;55.586;12.286;2023-04-01T07:42:45;100559.00;;;11.70
34807;BMP180;18310;55.586;12.286;2023-04-01T07:45:57;100545.00;;;11.70
34807;BMP180;18310;55.586;12.286;2023-04-01T07:49:10;100547.00;;;11.70
34807;BMP180;18310;55.586;12.286;2023-04-01T07:52:21;100562.00;;;11.80
34807;BMP180;18310;55.586;12.286;2023-04-01T07:55:30;100573.00;;;11.80
34807;BMP180;18310;55.586;12.286;2023-04-01T07:58:43;100564.00;;;11.80
34807;BMP180;18310;55.586;12.286;2023-04-01T08:01:56;100573.00;;;11.80
34807;BMP180;18310;55.586;12.286;2023-04-01T08:05:14;100588.00;;;12.00
34807;BMP180;18310;55.586;12.286;2023-04-01T08:08:36;100583.00;;;12.10
34807;BMP180;18310;55.586;12.286;2023-04-01T08:11:57;100592.00;;;12.20
34807;BMP180;18310;55.586;12.286;2023-04-01T08:15:17;100589.00;;;12.30
34807;BMP180;18310;55.586;12.286;2023-04-01T08:18:35;100591.00;;;12.30
34807;BMP180;18310;55.586;12.286;2023-04-01T08:21:45;100608.00;;;12.20
34807;BMP180;18310;55.586;12.286;2023-04-01T08:24:55;100594.00;;;12.20
34807;BMP180;18310;55.586;12.286;2023-04-01T08:28:10;100603.00;;;12.30
34807;BMP180;18310;55.586;12.286;2023-04-01T08:31:19;100607.00;;;12.40
34807;BMP180;18310;55.586;12.286;2023-04-01T08:34:31;100613.00;;;12.50
34807;BMP180;18310;55.586;12.286;2023-04-01T08:37:38;100633.00;;;12.50
34807;BMP180;18310;55.586;12.286;2023-04-01T08:41:00;100625.00;;;12.50
34807;BMP180;18310;55.586;12.286;2023-04-01T08:44:19;100653.00;;;12.50
34807;BMP180;18310;55.586;12.286;2023-04-01T08:47:40;100642.00;;;12.40
34807;BMP180;18310;55.586;12.286;2023-04-01T08:51:16;100643.00;;;12.40
34807;BMP180;18310;55.586;12.286;2023-04-01T08:54:41;100644.00;;;12.40
34807;BMP180;18310;55.586;12.286;2023-04-01T08:58:05;100645.00;;;12.40
34807;BMP180;18310;55.586;12.286;2023-04-01T09:01:17;100651.00;;;12.40
34807;BMP180;18310;55.586;12.286;2023-04-01T09:04:35;100656.00;;;12.60
34807;BMP180;18310;55.586;12.286;2023-04-01T09:07:49;100653.00;;;12.60
34807;BMP180;18310;55.586;12.286;2023-04-01T09:11:06;100665.00;;;12.60
34807;BMP180;18310;55.586;12.286;2023-04-01T09:14:23;100656.00;;;12.60
34807;BMP180;18310;55.586;12.286;2023-04-01T09:21:49;100669.00;;;12.70
34807;BMP180;18310;55.586;12.286;2023-04-01T09:25:30;100672.00;;;12.70
34807;BMP180;18310;55.586;12.286;2023-04-01T09:28:44;100686.00;;;12.70
34807;BMP180;18310;55.586;12.286;2023-04-01T09:32:09;100689.00;;;12.80
34807;BMP180;18310;55.586;12.286;2023-04-01T09:35:22;100700.00;;;12.70
34807;BMP180;18310;55.586;12.286;2023-04-01T09:38:30;100700.00;;;12.70
34807;BMP180;18310;55.586;12.286;2023-04-01T09:41:52;100707.00;;;12.70
34807;BMP180;18310;55.586;12.286;2023-04-01T09:45:03;100693.00;;;12.60
34807;BMP180;18310;55.586;12.286;2023-04-01T09:48:19;100723.00;;;12.60
34807;BMP180;18310;55.586;12.286;2023-04-01T09:51:31;100709.00;;;12.60
34807;BMP180;18310;55.586;12.286;2023-04-01T09:54:55;100728.00;;;12.60
34807;BMP180;18310;55.586;12.286;2023-04-01T09:58:29;100721.00;;;12.60
34807;BMP180;18310;55.586;12.286;2023-04-01T10:02:27;100728.00;;;12.70
34807;BMP180;18310;55.586;12.286;2023-04-01T10:06:13;100734.00;;;12.80
34807;BMP180;18310;55.586;12.286;2023-04-01T10:16:52;100749.00;;;13.00
34807;BMP180;18310;55.586;12.286;2023-04-01T10:20:37;100738.00;;;13.10
34807;BMP180;18310;55.586;12.286;2023-04-01T10:24:14;100743.00;;;13.20
34807;BMP180;18310;55.586;12.286;2023-04-01T10:46:38;100758.00;;;13.50
34807;BMP180;18310;55.586;12.286;2023-04-01T10:50:27;100761.00;;;13.50
34807;BMP180;18310;55.586;12.286;2023-04-01T10:53:46;100762.00;;;13.50
34807;BMP180;18310;55.586;12.286;2023-04-01T10:56:55;100764.00;;;13.40
34807;BMP180;18310;55.586;12.286;2023-04-01T11:00:49;100778.00;;;13.50
34807;BMP180;18310;55.586;12.286;2023-04-01T11:15:46;100779.00;;;13.70
34807;BMP180;18310;55.586;12.286;2023-04-01T11:23:07;100781.00;;;13.90
34807;BMP180;18310;55.586;12.286;2023-04-01T11:26:26;100796.00;;;14.00
34807;BMP180;18310;55.586;12.286;2023-04-01T11:30:02;100793.00;;;14.10
34807;BMP180;18310;55.586;12.286;2023-04-01T11:33:16;100793.00;;;14.10
34807;BMP180;18310;55.586;12.286;2023-04-01T11:36:30;100817.00;;;14.10
34807;BMP180;18310;55.586;12.286;2023-04-01T11:39:42;100808.00;;;14.20
34807;BMP180;18310;55.586;12.286;2023-04-01T11:42:55;100802.00;;;14.20
34807;BMP180;18310;55.586;12.286;2023-04-01T11:46:05;100801.00;;;14.20
34807;BMP180;18310;55.586;12.286;2023-04-01T11:49:26;100809.00;;;14.30
34807;BMP180;18310;55.586;12.286;2023-04-01T11:52:50;100812.00;;;14.40
34807;BMP180;18310;55.586;12.286;2023-04-01T11:56:15;100823.00;;;14.50
34807;BMP180;18310;55.586;12.286;2023-04-01T11:59:57;100819.00;;;14.60
34807;BMP180;18310;55.586;12.286;2023-04-01T12:03:37;100813.00;;;14.70
34807;BMP180;18310;55.586;12.286;2023-04-01T12:06:46;100827.00;;;14.70
34807;BMP180;18310;55.586;12.286;2023-04-01T12:09:59;100830.00;;;14.60
34807;BMP180;18310;55.586;12.286;2023-04-01T12:13:14;100834.00;;;14.70
34807;BMP180;18310;55.586;12.286;2023-04-01T12:16:46;100843.00;;;14.80
34807;BMP180;18310;55.586;12.286;2023-04-01T12:19:58;100835.00;;;14.80
34807;BMP180;18310;55.586;12.286;2023-04-01T12:23:16;100845.00;;;14.80
34807;BMP180;18310;55.586;12.286;2023-04-01T12:26:35;100845.00;;;14.80
34807;BMP180;18310;55.586;12.286;2023-04-01T12:30:01;100848.00;;;14.90
34807;BMP180;18310;55.586;12.286;2023-04-01T12:36:51;100861.00;;;14.90
34807;BMP180;18310;55.586;12.286;2023-04-01T12:40:16;100877.00;;;14.90
34807;BMP180;18310;55.586;12.286;2023-04-01T12:44:00;100870.00;;;15.00
34807;BMP180;18310;55.586;12.286;2023-04-01T12:47:37;100877.00;;;15.40
34807;BMP180;18310;55.586;12.286;2023-04-01T12:58:37;100876.00;;;16.00
34807;BMP180;18310;55.586;12.286;2023-04-01T13:02:12;100881.00;;;16.20
34807;BMP180;18310;55.586;12.286;2023-04-01T13:05:47;100885.00;;;16.30
34807;BMP180;18310;55.586;12.286;2023-04-01T13:09:11;100898.00;;;16.30
34807;BMP180;18310;55.586;12.286;2023-04-01T13:12:38;100904.00;;;16.20
34807;BMP180;18310;55.586;12.286;2023-04-01T13:15:47;100891.00;;;16.10
34807;BMP180;18310;55.586;12.286;2023-04-01T13:19:01;100894.00;;;16.20
34807;BMP180;18310;55.586;12.286;2023-04-01T13:22:15;100905.00;;;16.30
34807;BMP180;18310;55.586;12.286;2023-04-01T13:25:32;100900.00;;;16.30
34807;BMP180;18310;55.586;12.286;2023-04-01T13:28:41;100928.00;;;16.00
34807;BMP180;18310;55.586;12.286;2023-04-01T13:32:03;100910.00;;;15.90
34807;BMP180;18310;55.586;12.286;2023-04-01T13:35:30;100915.00;;;15.80
34807;BMP180;18310;55.586;12.286;2023-04-01T13:42:38;100909.00;;;15.60
34807;BMP180;18310;55.586;12.286;2023-04-01T13:46:09;100928.00;;;15.60
34807;BMP180;18310;55.586;12.286;2023-04-01T13:49:48;100941.00;;;15.70
34807;BMP180;18310;55.586;12.286;2023-04-01T13:53:33;100940.00;;;15.60
34807;BMP180;18310;55.586;12.286;2023-04-01T13:57:00;100929.00;;;15.60
34807;BMP180;18310;55.586;12.286;2023-04-01T14:00:25;100943.00;;;15.60
34807;BMP180;18310;55.586;12.286;2023-04-01T14:03:49;100951.00;;;15.60
34807;BMP180;18310;55.586;12.286;2023-04-01T14:07:16;100948.00;;;15.60
34807;BMP180;18310;55.586;12.286;2023-04-01T14:10:35;100965.00;;;15.60
34807;BMP180;18310;55.586;12.286;2023-04-01T14:13:58;100962.00;;;15.60
34807;BMP180;18310;55.586;12.286;2023-04-01T14:17:37;100960.00;;;15.60
34807;BMP180;18310;55.586;12.286;2023-04-01T14:20:53;100967.00;;;15.60
34807;BMP180;18310;55.586;12.286;2023-04-01T14:24:27;100968.00;;;15.70
34807;BMP180;18310;55.586;12.286;2023-04-01T14:27:53;100972.00;;;15.60
34807;BMP180;18310;55.586;12.286;2023-04-01T14:31:39;100967.00;;;15.70
34807;BMP180;18310;55.586;12.286;2023-04-01T14:35:03;100970.00;;;15.60
34807;BMP180;18310;55.586;12.286;2023-04-01T14:38:42;100966.00;;;15.60
34807;BMP180;18310;55.586;12.286;2023-04-01T14:42:02;100983.00;;;15.60
34807;BMP180;18310;55.586;12.286;2023-04-01T14:46:10;100987.00;;;15.70
34807;BMP180;18310;55.586;12.286;2023-04-01T14:49:28;100991.00;;;15.70
34807;BMP180;18310;55.586;12.286;2023-04-01T14:52:38;101005.00;;;15.70
34807;BMP180;18310;55.586;12.286;2023-04-01T14:55:50;100991.00;;;15.80
34807;BMP180;18310;55.586;12.286;2023-04-01T14:58:58;101005.00;;;15.80
34807;BMP180;18310;55.586;12.286;2023-04-01T15:02:33;101003.00;;;15.80
34807;BMP180;18310;55.586;12.286;2023-04-01T15:05:49;101007.00;;;15.80
34807;BMP180;18310;55.586;12.286;2023-04-01T15:08:58;101021.00;;;15.80
34807;BMP180;18310;55.586;12.286;2023-04-01T15:12:23;101024.00;;;15.70
34807;BMP180;18310;55.586;12.286;2023-04-01T15:15:53;101019.00;;;15.80
34807;BMP180;18310;55.586;12.286;2023-04-01T15:19:22;101030.00;;;15.80
34807;BMP180;18310;55.586;12.286;2023-04-01T15:22:45;101030.00;;;15.80
34807;BMP180;18310;55.586;12.286;2023-04-01T15:26:11;101042.00;;;15.80
34807;BMP180;18310;55.586;12.286;2023-04-01T15:29:43;101060.00;;;15.80
34807;BMP180;18310;55.586;12.286;2023-04-01T15:33:14;101057.00;;;15.80
34807;BMP180;18310;55.586;12.286;2023-04-01T15:36:34;101053.00;;;15.80
34807;BMP180;18310;55.586;12.286;2023-04-01T15:39:57;101054.00;;;15.70
34807;BMP180;18310;55.586;12.286;2023-04-01T15:43:18;101058.00;;;15.70
34807;BMP180;18310;55.586;12.286;2023-04-01T15:46:44;101066.00;;;15.70
34807;BMP180;18310;55.586;12.286;2023-04-01T15:49:56;101069.00;;;15.70
34807;BMP180;18310;55.586;12.286;2023-04-01T15:53:21;101067.00;;;15.70
34807;BMP180;18310;55.586;12.286;2023-04-01T15:56:46;101077.00;;;15.60
34807;BMP180;18310;55.586;12.286;2023-04-01T16:00:13;101086.00;;;15.60
34807;BMP180;18310;55.586;12.286;2023-04-01T16:03:36;101081.00;;;15.60
34807;BMP180;18310;55.586;12.286;2023-04-01T16:07:07;101092.00;;;15.50
34807;BMP180;18310;55.586;12.286;2023-04-01T16:10:47;101105.00;;;15.60
34807;BMP180;18310;55.586;12.286;2023-04-01T16:14:07;101104.00;;;15.60
34807;BMP180;18310;55.586;12.286;2023-04-01T16:17:48;101103.00;;;15.60
34807;BMP180;18310;55.586;12.286;2023-04-01T16:21:05;101109.00;;;15.60
34807;BMP180;18310;55.586;12.286;2023-04-01T16:24:22;101116.00;;;15.60
34807;BMP180;18310;55.586;12.286;2023-04-01T16:27:39;101131.00;;;15.60
34807;BMP180;18310;55.586;12.286;2023-04-01T16:30:48;101125.00;;;15.50
